Time;durP1;ratioP1;P1;durP2;ratioP2;P2;SDS_P1;SDS_P2;PMS_P1;PMS_P2;Temp;Humidity;BMP_temperature;BMP_pressure;BME280_temperature;BME280_humidity;BME280_pressure;Samples;Min_cycle;Max_cycle;Signal;HPM_P1;HPM_P2
2021/08/29 00:00:47;;;;;;;6.47;4.88;;;14.00;91.20;;;14.12;68.74;97756.59;4967684;28;20062;-39
2021/08/29 00:03:16;;;;;;;6.00;4.70;;;13.90;91.60;;;14.09;68.97;97753.44;4967795;28;20059;-39
2021/08/29 00:05:44;;;;;;;11.10;5.70;;;13.90;92.00;;;14.10;68.91;97752.44;4966513;28;20256;-40
2021/08/29 00:08:12;;;;;;;6.20;4.97;;;13.90;91.90;;;14.13;68.81;97744.03;4966810;28;20055;-39
2021/08/29 00:10:40;;;;;;;7.45;5.43;;;14.00;91.90;;;14.15;68.72;97740.19;4966834;28;20054;-39
2021/08/29 00:13:07;;;;;;;6.28;4.78;;;14.00;91.70;;;14.22;68.83;97739.44;4968217;28;20053;-38
2021/08/29 00:15:38;;;;;;;6.47;4.82;;;14.10;91.60;;;14.24;68.76;97740.09;4967088;28;20054;-38
2021/08/29 00:18:06;;;;;;;6.85;4.93;;;14.10;91.60;;;14.25;68.95;97739.91;4967707;28;20061;-39
2021/08/29 00:20:34;;;;;;;6.57;4.85;;;14.20;91.50;;;14.31;68.66;97741.03;4967695;28;20066;-39
2021/08/29 00:23:03;;;;;;;6.53;4.07;;;14.20;91.20;;;14.30;68.83;97734.84;4966034;28;20054;-39
2021/08/29 00:25:31;;;;;;;8.15;5.32;;;14.20;91.10;;;14.30;68.74;97739.38;4966507;28;20057;-38
2021/08/29 00:27:59;;;;;;;7.32;5.70;;;14.10;91.50;;;14.23;68.78;97733.91;4967646;28;20064;-38
2021/08/29 00:30:27;;;;;;;7.20;5.28;;;14.00;92.10;;;14.23;68.98;97731.25;4965869;28;20062;-39
2021/08/29 00:32:55;;;;;;;6.82;5.35;;;14.00;92.50;;;14.20;69.20;97736.94;4966438;28;20549;-39
2021/08/29 00:35:23;;;;;;;7.60;4.85;;;14.00;92.60;;;14.16;69.37;97731.13;4967329;28;20054;-39
2021/08/29 00:37:51;;;;;;;6.15;4.80;;;14.00;93.10;;;14.16;69.52;97723.09;4966935;28;20070;-39
2021/08/29 00:40:20;;;;;;;7.50;5.25;;;14.00;93.20;;;14.12;69.75;97721.78;4966093;28;20059;-39
2021/08/29 00:42:49;;;;;;;7.20;5.07;;;14.00;93.50;;;14.13;69.91;97722.63;4964510;28;20066;-39
2021/08/29 00:45:22;;;;;;;6.20;4.95;;;14.00;93.60;;;14.16;69.84;97725.75;4967722;28;20063;-39
2021/08/29 00:47:50;;;;;;;7.18;5.35;;;14.00;93.70;;;14.20;70.01;97720.06;4965434;28;20054;-38
2021/08/29 00:50:19;;;;;;;7.25;5.03;;;14.00;93.70;;;14.15;70.20;97718.75;4966361;28;20209;-39
2021/08/29 00:52:48;;;;;;;7.30;5.15;;;14.00;93.90;;;14.12;70.30;97727.16;4967563;28;20057;-39
2021/08/29 00:55:17;;;;;;;7.03;4.47;;;13.90;94.50;;;14.14;70.29;97725.13;4966262;28;20058;-39
2021/08/29 00:57:49;;;;;;;5.93;4.38;;;14.00;94.50;;;14.14;70.23;97721.63;4964102;28;20069;-39
2021/08/29 01:00:20;;;;;;;6.68;5.25;;;13.90;94.50;;;14.11;70.52;97716.63;4964356;28;20221;-39
2021/08/29 01:02:57;;;;;;;9.40;5.72;;;13.90;95.10;;;14.08;70.67;97708.97;4965107;28;20352;-39
2021/08/29 01:05:40;;;;;;;6.95;4.93;;;13.90;95.70;;;14.08;70.39;97709.78;4967303;28;20272;-39
2021/08/29 01:08:32;;;;;;;7.60;5.30;;;13.90;95.60;;;14.10;70.85;97714.97;4952526;28;20056;-39
2021/08/29 01:11:09;;;;;;;6.75;5.40;;;13.90;95.90;;;14.08;71.34;97717.81;4947133;28;20085;-39
2021/08/29 01:13:47;;;;;;;9.65;5.38;;;13.90;95.80;;;14.09;70.68;97711.44;4965172;28;20077;-39
2021/08/29 01:16:21;;;;;;;9.15;6.07;;;13.90;96.00;;;14.11;70.67;97716.63;4950228;28;20066;-39
2021/08/29 01:19:01;;;;;;;6.85;4.90;;;13.90;96.00;;;14.07;71.00;97718.00;4966380;28;20058;-39
2021/08/29 01:21:35;;;;;;;7.85;5.18;;;13.90;96.70;;;14.10;70.83;97707.75;4966247;28;20051;-39
2021/08/29 01:24:19;;;;;;;6.72;5.03;;;13.90;96.00;;;14.00;71.77;97709.88;4950355;28;20047;-40
2021/08/29 01:27:12;;;;;;;7.93;5.82;;;13.90;96.60;;;13.95;71.97;97705.03;4947970;28;20058;-40
2021/08/29 01:29:40;;;;;;;7.85;5.53;;;13.80;97.60;;;13.99;71.65;97710.88;4966183;28;20081;-40
2021/08/29 01:32:11;;;;;;;10.32;5.18;;;13.80;97.10;;;14.04;71.82;97700.47;4979863;28;20176;-40
2021/08/29 01:34:47;;;;;;;6.78;5.47;;;13.90;97.00;;;14.04;71.92;97700.47;4949465;28;20269;-40
2021/08/29 01:37:21;;;;;;;6.18;4.63;;;13.90;97.20;;;14.13;71.77;97695.84;4981740;28;20058;-40
2021/08/29 01:39:50;;;;;;;6.63;5.03;;;14.00;97.00;;;14.16;71.70;97695.50;4965210;28;20058;-40
2021/08/29 01:42:28;;;;;;;7.40;5.28;;;14.10;96.70;;;14.18;71.59;97696.97;4964143;28;20062;-40
2021/08/29 01:44:57;;;;;;;5.80;4.88;;;14.00;97.00;;;14.21;71.64;97692.25;4948219;28;20058;-39
2021/08/29 01:47:25;;;;;;;7.28;5.32;;;14.00;96.60;;;14.22;71.60;97689.41;4949003;28;20051;-39
2021/08/29 01:49:53;;;;;;;7.05;5.97;;;14.10;96.70;;;14.25;71.43;97696.22;4966064;28;20591;-39
2021/08/29 01:52:21;;;;;;;7.70;4.75;;;14.10;96.60;;;14.25;71.48;97690.88;4964774;28;20061;-39
2021/08/29 01:55:11;;;;;;;7.50;5.22;;;14.10;96.50;;;14.23;71.36;97688.41;4966787;28;20059;-39
2021/08/29 01:57:44;;;;;;;6.03;4.82;;;14.10;96.60;;;14.24;71.44;97683.88;4981434;28;20236;-39
2021/08/29 02:00:25;;;;;;;7.20;4.50;;;14.10;96.70;;;14.23;71.43;97677.69;4981090;28;20054;-39
2021/08/29 02:02:53;;;;;;;8.65;5.45;;;14.00;96.60;;;14.21;71.52;97678.88;4965688;28;20073;-40
2021/08/29 02:05:21;;;;;;;6.97;5.45;;;14.00;96.90;;;14.20;71.48;97678.03;4979471;28;20050;-40
2021/08/29 02:07:56;;;;;;;6.45;4.75;;;14.00;97.00;;;14.20;71.72;97669.19;4949003;28;20053;-40
2021/08/29 02:10:33;;;;;;;7.25;5.65;;;14.00;97.20;;;14.18;71.90;97670.19;4966576;28;20061;-40
2021/08/29 02:13:11;;;;;;;7.63;4.97;;;14.00;97.00;;;14.19;71.78;97671.03;4949627;28;20051;-38
2021/08/29 02:15:51;;;;;;;10.90;4.50;;;14.10;97.10;;;14.21;71.70;97671.69;4980399;28;20261;-39
2021/08/29 02:18:22;;;;;;;6.93;4.50;;;14.10;97.30;;;14.22;71.78;97667.97;4964141;28;20059;-38
2021/08/29 02:20:52;;;;;;;7.25;4.60;;;14.10;97.30;;;14.23;71.83;97668.81;4964625;28;20362;-38
2021/08/29 02:23:23;;;;;;;5.80;4.35;;;14.10;97.30;;;14.26;71.69;97669.28;4969178;28;20053;-39
2021/08/29 02:25:52;;;;;;;5.88;4.38;;;14.10;97.10;;;14.27;71.76;97659.38;4984188;28;20257;-39
2021/08/29 02:28:21;;;;;;;7.22;4.75;;;14.10;97.20;;;14.26;71.88;97666.59;4967821;28;20382;-39
2021/08/29 02:30:49;;;;;;;6.57;4.68;;;14.10;97.40;;;14.29;71.84;97670.78;4967392;28;20211;-39
2021/08/29 02:33:19;;;;;;;5.88;4.38;;;14.10;97.30;;;14.32;71.77;97671.22;4968092;28;20374;-39
2021/08/29 02:35:50;;;;;;;6.55;4.70;;;14.10;97.00;;;14.32;71.86;97668.53;4951585;28;20063;-39
2021/08/29 02:38:22;;;;;;;;;;;14.10;97.20;;;14.27;71.35;97657.56;4969175;28;20330;-39
2021/08/29 02:40:52;;;;;;;7.25;4.68;;;14.10;97.90;;;14.31;71.76;97660.72;4951626;28;19924;-39
2021/08/29 02:43:21;;;;;;;6.80;4.47;;;14.10;97.30;;;14.31;71.80;97663.38;4983806;28;20248;-39
2021/08/29 02:45:53;;;;;;;6.10;4.10;;;14.10;97.30;;;14.30;71.77;97667.06;4970161;28;20061;-39
2021/08/29 02:48:30;;;;;;;5.15;3.88;;;14.10;97.40;;;14.29;71.98;97658.22;4967672;28;20066;-39
2021/08/29 02:50:59;;;;;;;5.40;3.90;;;14.10;97.30;;;14.31;71.82;97661.53;4967930;28;20251;-39
2021/08/29 02:53:27;;;;;;;5.38;3.80;;;14.10;97.30;;;14.30;71.94;97661.72;4968542;28;20069;-39
2021/08/29 02:55:58;;;;;;;7.10;4.32;;;14.10;97.00;;;14.32;71.85;97668.53;4967284;28;20081;-39
2021/08/29 02:58:32;;;;;;;5.05;3.60;;;14.10;97.20;;;14.32;71.92;97659.66;4981884;28;20398;-39
2021/08/29 03:01:17;;;;;;;9.38;3.90;;;14.10;97.20;;;14.32;71.84;97659.66;4968810;28;20499;-39
2021/08/29 03:03:54;;;;;;;5.90;4.50;;;14.20;97.10;;;14.33;71.77;97662.16;4969678;28;20062;-39
2021/08/29 03:06:25;;;;;;;6.78;4.18;;;14.20;97.10;;;14.33;71.82;97664.84;4967771;28;20072;-39
2021/08/29 03:08:53;;;;;;;7.05;4.40;;;14.20;97.00;;;14.34;71.80;97669.19;4966301;28;20059;-39
2021/08/29 03:11:23;;;;;;;4.93;3.80;;;14.20;97.10;;;14.34;71.72;97665.66;4967935;28;20055;-39
2021/08/29 03:13:53;;;;;;;5.82;4.18;;;14.20;97.10;;;14.33;71.77;97666.72;4966211;28;20047;-39
2021/08/29 03:16:22;;;;;;;5.72;4.07;;;14.10;97.00;;;14.32;71.90;97665.03;4968883;28;20378;-39
2021/08/29 03:18:51;;;;;;;5.35;4.47;;;14.10;97.30;;;14.31;71.89;97658.84;4967476;28;20059;-39
2021/08/29 03:21:46;;;;;;;4.75;3.60;;;14.10;97.20;;;14.29;72.01;97660.88;4953379;28;20073;-38
2021/08/29 03:24:15;;;;;;;4.95;3.78;;;14.10;97.20;;;14.30;71.93;97656.34;4969133;28;20060;-39
2021/08/29 03:26:43;;;;;;;5.55;3.97;;;14.10;97.30;;;14.33;71.93;97656.00;4967728;28;20060;-39
2021/08/29 03:29:24;;;;;;;4.95;3.47;;;14.10;97.30;;;14.31;72.06;97650.81;4983706;28;20046;-39
2021/08/29 03:31:52;;;;;;;6.70;4.32;;;14.10;97.00;;;14.32;71.99;97655.13;4982237;28;20050;-38
2021/08/29 03:34:22;;;;;;;5.25;4.05;;;14.10;97.20;;;14.31;71.87;97652.66;4967532;28;20061;-38
2021/08/29 03:36:51;;;;;;;5.28;4.28;;;14.10;97.20;;;14.27;72.03;97646.84;4965940;28;20376;-38
2021/08/29 03:39:27;;;;;;;4.88;3.67;;;14.00;97.20;;;14.27;71.96;97644.16;4965188;28;20058;-39
2021/08/29 03:41:57;;;;;;;6.15;3.40;;;14.00;97.40;;;14.27;71.95;97643.31;4982513;28;20066;-39
2021/08/29 03:44:27;;;;;;;6.25;4.32;;;14.10;97.40;;;14.27;72.02;97646.00;4985028;28;20063;-40
2021/08/29 03:46:56;;;;;;;6.45;4.10;;;14.10;97.40;;;14.26;72.08;97641.66;4968968;28;20080;-39
2021/08/29 03:49:36;;;;;;;7.20;4.57;;;14.00;97.50;;;14.22;72.23;97635.84;4967913;28;20065;-39
2021/08/29 03:52:07;;;;;;;5.82;3.72;;;14.00;97.60;;;14.19;72.12;97636.25;4966851;28;20461;-39
2021/08/29 03:54:54;;;;;;;7.18;4.68;;;13.90;97.80;;;14.13;72.20;97628.91;4969927;28;20073;-39
2021/08/29 03:57:23;;;;;;;5.45;4.20;;;13.80;98.00;;;14.14;72.56;97630.59;4966166;28;20058;-39
2021/08/29 03:59:51;;;;;;;6.43;4.05;;;13.90;98.20;;;14.17;72.38;97627.53;4966785;28;20062;-39
2021/08/29 04:02:20;;;;;;;6.22;4.50;;;14.00;98.00;;;14.19;72.33;97630.88;4982688;28;20062;-39
2021/08/29 04:04:48;;;;;;;6.03;3.70;;;14.00;97.90;;;14.17;72.27;97631.06;4983168;28;20251;-39
2021/08/29 04:07:18;;;;;;;7.25;4.65;;;14.00;97.70;;;14.16;72.35;97628.56;4982943;28;20471;-39
2021/08/29 04:10:10;;;;;;;6.60;4.13;;;13.90;98.00;;;14.10;72.32;97632.81;4966898;28;20057;-38
2021/08/29 04:12:43;;;;;;;5.32;3.60;;;13.90;98.00;;;14.10;72.47;97627.44;4961583;28;20055;-38
2021/08/29 04:15:36;;;;;;;7.10;4.15;;;13.90;98.00;;;14.07;72.39;97621.63;4949465;28;20061;-38
2021/08/29 04:18:08;;;;;;;6.20;3.75;;;13.90;98.20;;;14.06;72.61;97626.16;4950890;28;20062;-38
2021/08/29 04:20:36;;;;;;;5.15;3.53;;;13.80;98.30;;;14.07;72.50;97625.13;4966624;28;20280;-38
2021/08/29 04:23:05;;;;;;;6.10;3.78;;;13.90;98.30;;;14.08;72.54;97620.63;4966897;28;20065;-38
2021/08/29 04:25:33;;;;;;;5.25;3.65;;;13.90;98.10;;;14.08;72.58;97621.44;4967548;28;20066;-39
2021/08/29 04:28:02;;;;;;;4.53;3.65;;;13.90;98.10;;;14.08;72.57;97620.63;4965253;28;20057;-39
2021/08/29 04:30:32;;;;;;;5.53;3.90;;;13.90;98.20;;;14.08;72.73;97615.28;4965858;28;20062;-38
2021/08/29 04:33:00;;;;;;;4.68;3.40;;;13.90;98.20;;;14.06;72.57;97612.78;4966438;28;20061;-39
2021/08/29 04:35:54;;;;;;;5.93;4.28;;;13.90;98.30;;;14.01;72.73;97609.81;4981600;28;20303;-39
2021/08/29 04:38:23;;;;;;;4.45;3.30;;;13.80;98.20;;;13.96;72.79;97610.38;4948829;28;20062;-39
2021/08/29 04:40:50;;;;;;;5.75;3.78;;;13.70;98.60;;;13.96;72.95;97606.88;4982525;28;20064;-38
2021/08/29 04:43:20;;;;;;;3.58;2.88;;;13.80;98.60;;;13.98;73.00;97610.19;4965559;28;20391;-39
2021/08/29 04:45:47;;;;;;;5.00;2.80;;;13.80;98.60;;;14.02;72.86;97605.31;4965227;28;20543;-39
2021/08/29 04:48:17;;;;;;;5.38;3.45;;;13.80;98.60;;;14.01;72.89;97612.47;4966384;28;20268;-39
2021/08/29 04:50:46;;;;;;;4.43;3.13;;;13.80;98.70;;;13.99;73.01;97609.97;4965829;28;20062;-39
2021/08/29 04:53:17;;;;;;;4.13;3.60;;;13.80;99.00;;;14.00;73.04;97605.47;4967092;28;20065;-39
2021/08/29 04:55:45;;;;;;;5.63;3.58;;;13.80;99.10;;;14.05;73.16;97610.28;4966819;28;20055;-38
2021/08/29 04:58:13;;;;;;;5.35;3.42;;;13.80;99.10;;;14.04;73.01;97616.66;4966593;28;20057;-38
2021/08/29 05:00:41;;;;;;;6.40;3.50;;;13.80;98.90;;;14.01;73.29;97607.13;4966613;28;20061;-38
2021/08/29 05:03:09;;;;;;;7.00;4.28;;;13.80;99.20;;;14.02;73.19;97610.66;4965846;28;20057;-38
2021/08/29 05:05:39;;;;;;;4.10;3.38;;;13.80;99.60;;;14.03;73.49;97609.63;4966482;28;20252;-39
2021/08/29 05:08:07;;;;;;;5.40;2.65;;;13.90;99.10;;;14.06;73.19;97617.31;4949334;28;20055;-39
2021/08/29 05:10:35;;;;;;;4.78;2.97;;;13.90;98.90;;;14.07;73.09;97618.94;4966147;28;20230;-38
2021/08/29 05:13:07;;;;;;;4.95;3.30;;;13.90;98.80;;;14.05;73.15;97620.97;4966002;28;20046;-39
2021/08/29 05:15:35;;;;;;;4.47;3.33;;;13.80;98.90;;;14.06;73.24;97622.66;4965067;28;20062;-39
2021/08/29 05:18:03;;;;;;;6.03;3.80;;;13.90;99.20;;;14.06;73.23;97618.13;4965218;28;20054;-39
2021/08/29 05:20:37;;;;;;;4.25;3.70;;;13.80;99.10;;;14.04;73.45;97614.81;4964444;28;20060;-39
2021/08/29 05:23:23;;;;;;;4.10;3.45;;;13.90;98.90;;;14.05;73.25;97612.94;4968488;28;20045;-39
2021/08/29 05:26:10;;;;;;;4.97;3.60;;;13.90;98.50;;;14.03;73.32;97613.13;4966821;28;20051;-38
2021/08/29 05:28:39;;;;;;;4.28;3.63;;;13.90;98.50;;;14.01;73.23;97611.66;4964759;28;20047;-39
2021/08/29 05:31:06;;;;;;;5.22;3.90;;;13.80;98.50;;;13.99;73.33;97609.16;4964557;28;20066;-39
2021/08/29 05:33:35;;;;;;;4.07;3.10;;;13.80;98.50;;;13.95;73.22;97613.22;4964266;28;20290;-39
2021/08/29 05:36:06;;;;;;;4.30;2.80;;;13.80;98.70;;;13.96;73.38;97618.41;4966781;28;20470;-39
2021/08/29 05:38:33;;;;;;;3.30;2.88;;;13.80;98.90;;;13.88;73.58;97609.59;4966005;28;20059;-39
2021/08/29 05:41:05;;;;;;;4.50;2.80;;;13.70;99.00;;;13.82;73.57;97613.84;4981188;28;20480;-39
2021/08/29 05:43:45;;;;;;;5.03;3.30;;;13.60;99.50;;;13.78;73.59;97608.06;4968257;28;20055;-39
2021/08/29 05:46:22;;;;;;;4.03;2.83;;;13.60;99.90;;;13.79;73.66;97611.56;4966183;28;20050;-39
2021/08/29 05:48:50;;;;;;;3.85;2.70;;;13.60;99.90;;;13.80;73.61;97605.16;4966755;28;20157;-39
2021/08/29 05:51:19;;;;;;;3.55;2.55;;;13.60;99.90;;;13.82;73.79;97605.00;4965263;28;20345;-39
2021/08/29 05:53:47;;;;;;;2.80;1.95;;;13.60;99.90;;;13.88;73.68;97605.09;4965913;28;20058;-39
2021/08/29 05:56:15;;;;;;;2.08;1.88;;;13.70;99.80;;;13.92;73.58;97600.19;4965320;28;20366;-39
2021/08/29 05:58:43;;;;;;;3.63;2.00;;;13.80;99.50;;;13.94;73.67;97604.38;4968192;28;20057;-39
2021/08/29 06:01:15;;;;;;;3.97;2.45;;;13.80;99.60;;;13.98;73.57;97611.00;4983936;28;20365;-39
2021/08/29 06:03:46;;;;;;;3.95;1.83;;;13.80;99.60;;;14.02;73.52;97605.31;4969524;28;20054;-39
2021/08/29 06:06:33;;;;;;;3.28;2.00;;;13.80;99.40;;;14.02;73.55;97597.28;4973811;28;20049;-39
2021/08/29 06:09:03;;;;;;;2.45;1.65;;;13.80;99.50;;;14.01;73.53;97599.09;4968201;28;20044;-39
2021/08/29 06:11:33;;;;;;;2.10;1.60;;;13.80;99.60;;;14.03;73.45;97596.25;4968636;28;20059;-39
2021/08/29 06:14:05;;;;;;;2.75;1.75;;;13.80;99.50;;;14.04;73.60;97595.25;4970623;28;20062;-39
2021/08/29 06:16:34;;;;;;;2.80;1.80;;;13.80;99.70;;;14.03;73.65;97597.06;4968663;28;20578;-39
2021/08/29 06:19:05;;;;;;;2.88;1.83;;;13.90;99.70;;;13.98;73.72;97596.81;4967974;28;20055;-39
2021/08/29 06:21:33;;;;;;;2.53;1.70;;;13.80;99.90;;;13.94;73.80;97600.88;4967288;28;20071;-39
2021/08/29 06:24:01;;;;;;;2.90;1.48;;;13.70;99.90;;;13.96;74.05;97605.00;4969303;28;20051;-39
2021/08/29 06:26:47;;;;;;;1.90;1.30;;;13.80;99.90;;;14.04;73.84;97605.94;4976029;28;20053;-39
2021/08/29 06:29:33;;;;;;;2.80;1.77;;;13.80;99.90;;;14.05;74.05;97610.28;4972771;28;20569;-39
2021/08/29 06:32:20;;;;;;;3.05;1.83;;;13.80;99.90;;;14.08;74.00;97600.03;4969290;28;20049;-39
2021/08/29 06:34:53;;;;;;;2.40;1.95;;;13.90;99.90;;;14.12;74.27;97601.31;4968251;28;20073;-39
2021/08/29 06:37:39;;;;;;;3.00;2.20;;;14.00;99.90;;;14.20;74.13;97596.91;4968147;28;20045;-39
2021/08/29 06:40:08;;;;;;;2.45;2.00;;;14.10;99.90;;;14.24;74.25;97593.66;4968794;28;20230;-39
2021/08/29 06:42:36;;;;;;;2.88;2.00;;;14.10;99.90;;;14.27;74.36;97595.97;4984587;28;20069;-39
2021/08/29 06:45:23;;;;;;;13.70;7.90;;;14.20;99.90;;;14.32;74.52;97590.03;4967752;28;20245;-39
2021/08/29 06:48:09;;;;;;;7.00;5.47;;;14.20;99.90;;;14.29;74.79;97588.59;4971429;28;20061;-39
2021/08/29 06:50:56;;;;;;;3.33;2.40;;;14.20;99.90;;;14.32;74.72;97592.72;4968909;28;20045;-39
2021/08/29 06:53:46;;;;;;;3.53;2.60;;;14.20;99.90;;;14.36;74.73;97596.69;4968567;28;20064;-39
2021/08/29 06:56:33;;;;;;;4.45;2.80;;;14.20;99.90;;;14.39;74.79;97590.97;4972559;28;20049;-39
2021/08/29 06:59:06;;;;;;;3.65;2.30;;;14.30;99.90;;;14.44;74.91;97587.72;4966502;28;20054;-39
2021/08/29 07:01:33;;;;;;;2.85;2.30;;;14.30;99.90;;;14.44;75.00;97591.22;4968812;28;20691;-39
2021/08/29 07:04:03;;;;;;;3.03;1.95;;;14.30;99.90;;;14.48;74.83;97589.84;4984292;28;20058;-39
2021/08/29 07:06:31;;;;;;;2.97;2.08;;;14.30;99.90;;;14.46;75.27;97591.91;4985766;28;20051;-39
2021/08/29 07:09:39;;;;;;;4.18;2.83;;;14.30;99.90;;;14.32;75.91;97590.03;4927058;29;20387;-39
2021/08/29 07:12:11;;;;;;;4.03;3.00;;;14.20;99.90;;;14.35;75.58;97590.50;4910885;29;20052;-39
2021/08/29 07:14:57;;;;;;;5.65;3.65;;;14.20;99.90;;;14.31;76.14;97588.41;4957503;28;20065;-39
2021/08/29 07:17:26;;;;;;;3.63;2.88;;;14.20;99.90;;;14.21;76.95;97593.19;4965669;28;20051;-39
2021/08/29 07:19:54;;;;;;;3.97;2.80;;;14.10;99.90;;;14.28;76.34;97586.09;4968262;28;20548;-39
2021/08/29 07:22:40;;;;;;;4.43;3.40;;;14.20;99.90;;;14.19;77.39;97596.06;4972569;28;20248;-39
2021/08/29 07:25:27;;;;;;;4.63;3.40;;;14.10;99.90;;;14.17;77.37;97592.72;4970042;28;20049;-39
2021/08/29 07:28:13;;;;;;;4.07;3.20;;;14.10;99.90;;;14.14;77.72;97593.94;4968334;28;20053;-39
2021/08/29 07:31:16;;;;;;;4.75;3.65;;;14.10;99.90;;;14.14;77.96;97588.59;4965338;28;20069;-39
2021/08/29 07:33:44;;;;;;;4.22;3.53;;;14.20;99.90;;;14.06;78.57;97595.91;4966680;28;20062;-39
2021/08/29 07:36:23;;;;;;;5.25;3.88;;;14.10;99.90;;;14.03;78.95;97596.25;4966499;28;20069;-39
2021/08/29 07:39:05;;;;;;;4.75;3.75;;;14.10;99.90;;;14.01;79.15;97601.78;4964509;28;20058;-39
2021/08/29 07:41:33;;;;;;;5.82;4.38;;;14.00;99.90;;;14.08;78.94;97594.69;4966960;28;20068;-39
2021/08/29 07:44:02;;;;;;;4.20;3.53;;;14.10;99.90;;;14.04;79.57;97604.09;4965841;28;20050;-39
2021/08/29 07:46:31;;;;;;;4.78;3.88;;;14.10;99.90;;;14.11;78.96;97599.69;4965212;28;20050;-39
2021/08/29 07:48:59;;;;;;;4.07;3.40;;;14.20;99.90;;;14.05;79.24;97599.56;4966171;28;20054;-39
2021/08/29 07:51:27;;;;;;;5.07;4.05;;;14.10;99.90;;;14.00;79.63;97610.84;4965063;28;20321;-39
2021/08/29 07:54:15;;;;;;;5.10;4.00;;;14.10;99.90;;;14.05;79.64;97603.06;4958160;28;20317;-39
2021/08/29 07:56:55;;;;;;;7.05;4.72;;;14.10;99.90;;;14.11;79.48;97602.34;4965146;28;20059;-39
2021/08/29 07:59:23;;;;;;;5.55;3.85;;;14.20;99.90;;;14.09;79.57;97617.75;4964676;28;20042;-39
2021/08/29 08:01:52;;;;;;;6.15;4.80;;;14.10;99.90;;;14.03;79.66;97618.47;4963856;28;20734;-39
2021/08/29 08:04:38;;;;;;;10.98;9.88;;;14.10;99.90;;;14.08;79.43;97610.75;4962531;28;20057;-39
2021/08/29 08:07:26;;;;;;;6.70;4.20;;;14.10;99.90;;;14.09;79.57;97611.56;4964840;28;20065;-39
2021/08/29 08:10:31;;;;;;;4.65;3.75;;;14.10;99.90;;;14.00;79.91;97613.50;4939340;28;20078;-39
2021/08/29 08:13:21;;;;;;;6.85;5.47;;;14.10;99.90;;;14.05;79.96;97616.44;4961840;28;20087;-39
2021/08/29 08:15:49;;;;;;;5.80;4.13;;;14.10;99.90;;;14.08;79.98;97620.63;4963216;28;20047;-39
2021/08/29 08:18:17;;;;;;;6.57;5.35;;;14.10;99.90;;;14.09;80.19;97619.59;4965802;28;20051;-39
2021/08/29 08:20:45;;;;;;;6.20;5.15;;;14.20;99.90;;;14.00;80.50;97618.88;4964846;28;20077;-39
2021/08/29 08:23:39;;;;;;;6.05;4.30;;;14.20;99.90;;;14.10;80.19;97615.91;4947887;28;20066;-39
2021/08/29 08:26:33;;;;;;;6.90;5.25;;;14.20;99.90;;;13.93;81.26;97617.94;4935289;28;20643;-40
2021/08/29 08:29:20;;;;;;;6.75;5.32;;;14.10;99.90;;;14.04;81.05;97622.84;4969905;28;20073;-39
2021/08/29 08:32:07;;;;;;;7.45;5.53;;;14.20;99.90;;;14.06;81.05;97626.16;4965334;28;20124;-39
2021/08/29 08:34:52;;;;;;;5.10;4.25;;;14.30;99.90;;;14.19;80.88;97625.53;4963806;28;20050;-39
2021/08/29 08:37:40;;;;;;;7.63;5.40;;;14.40;99.90;;;14.32;80.79;97617.66;4964280;28;20065;-39
2021/08/29 08:40:43;;;;;;;6.70;5.82;;;14.50;99.90;;;14.39;80.80;97623.09;4964696;28;20054;-39
2021/08/29 08:43:15;;;;;;;6.43;4.90;;;14.60;99.90;;;14.23;81.12;97621.47;4967428;28;20058;-39
2021/08/29 08:46:03;;;;;;;5.93;4.95;;;14.50;99.90;;;14.38;80.53;97610.72;4970079;28;20366;-39
2021/08/29 08:48:51;;;;;;;6.40;4.57;;;14.60;99.90;;;14.51;80.25;97621.59;4967520;28;20065;-39
2021/08/29 08:52:02;;;;;;;6.93;5.43;;;14.70;99.90;;;14.52;80.13;97612.56;4907593;29;20411;-39
2021/08/29 08:54:52;;;;;;;6.03;5.15;;;14.70;99.90;;;14.57;79.97;97610.16;4910521;29;20129;-39
2021/08/29 08:57:55;;;;;;;6.95;5.40;;;14.70;99.90;;;14.44;80.31;97618.00;4957947;28;20061;-39
2021/08/29 09:00:34;;;;;;;6.20;4.85;;;14.60;99.90;;;14.35;80.84;97611.94;4963851;28;20058;-40
2021/08/29 09:03:21;;;;;;;6.25;4.95;;;14.50;99.90;;;14.43;80.54;97610.19;4966526;28;20057;-39
2021/08/29 09:06:06;;;;;;;9.10;6.35;;;14.60;99.90;;;14.57;80.08;97620.06;4966080;28;20280;-39
2021/08/29 09:08:36;;;;;;;7.45;5.78;;;14.60;99.90;;;14.57;80.17;97618.22;4964889;28;20370;-39
2021/08/29 09:11:05;;;;;;;7.47;6.22;;;14.60;99.90;;;14.55;80.05;97614.84;4965098;28;20072;-39
2021/08/29 09:13:49;;;;;;;6.90;5.47;;;14.60;99.90;;;14.57;80.04;97615.53;4964553;28;20062;-39
2021/08/29 09:16:20;;;;;;;7.90;5.70;;;14.70;99.90;;;14.59;79.86;97622.56;4965236;28;20058;-39
2021/08/29 09:19:04;;;;;;;6.45;5.05;;;14.60;99.90;;;14.38;80.31;97616.94;4963973;28;20265;-39
2021/08/29 09:21:37;;;;;;;7.25;5.57;;;14.50;99.90;;;14.51;80.01;97618.09;4950163;28;20050;-39
2021/08/29 09:24:17;;;;;;;6.07;5.47;;;14.60;99.90;;;14.42;80.41;97619.22;4965145;28;20051;-39
2021/08/29 09:27:11;;;;;;;8.43;5.63;;;14.50;99.90;;;14.36;80.49;97621.66;4964555;28;20247;-39
2021/08/29 09:29:50;;;;;;;8.10;5.68;;;14.50;99.90;;;14.32;80.59;97624.84;4951061;28;20055;-39
2021/08/29 09:32:20;;;;;;;6.32;5.70;;;14.40;99.90;;;14.37;80.39;97620.63;4963877;28;20051;-39
2021/08/29 09:35:01;;;;;;;7.00;5.85;;;14.40;99.90;;;14.32;80.35;97625.69;4964564;28;20237;-39
2021/08/29 09:37:44;;;;;;;6.97;6.28;;;14.40;99.90;;;14.45;80.30;97621.53;4963486;28;20046;-39
2021/08/29 09:40:27;;;;;;;7.22;5.22;;;14.50;99.90;;;14.52;80.12;97622.44;4963652;28;20051;-39
2021/08/29 09:43:14;;;;;;;7.05;4.70;;;14.60;99.90;;;14.55;80.30;97619.41;4951885;28;20047;-39
2021/08/29 09:45:46;;;;;;;6.30;5.47;;;14.70;99.90;;;14.57;79.98;97626.25;4965455;28;20612;-39
2021/08/29 09:48:32;;;;;;;6.10;5.50;;;14.70;99.90;;;14.71;79.76;97618.38;4967248;28;20057;-38
2021/08/29 09:51:27;;;;;;;6.45;5.45;;;14.80;99.90;;;14.57;80.03;97618.22;4960460;28;20396;-39
2021/08/29 09:54:06;;;;;;;6.05;5.30;;;14.80;99.90;;;14.54;80.13;97623.94;4962330;28;20051;-39
2021/08/29 09:56:50;;;;;;;6.50;4.55;;;14.70;99.90;;;14.67;79.93;97628.63;4965711;28;20256;-39
2021/08/29 09:59:50;;;;;;;6.55;5.07;;;14.80;99.90;;;14.67;79.86;97617.09;4963629;28;20241;-39
2021/08/29 10:02:29;;;;;;;5.30;4.72;;;14.80;99.90;;;14.80;79.65;97619.09;4962541;28;20064;-39
2021/08/29 10:05:18;;;;;;;7.63;6.18;;;14.90;99.90;;;14.77;79.57;97620.28;4964673;28;20057;-39
2021/08/29 10:07:57;;;;;;;6.38;5.78;;;15.00;99.90;;;14.63;79.79;97613.94;4975040;28;20480;-39
2021/08/29 10:10:32;;;;;;;7.03;5.55;;;14.80;99.90;;;14.73;79.62;97629.72;4984427;28;20065;-39
2021/08/29 10:13:07;;;;;;;6.55;5.45;;;14.80;99.90;;;14.73;79.79;97624.38;4963898;28;20084;-39
2021/08/29 10:15:37;;;;;;;6.68;5.75;;;14.80;99.90;;;14.75;79.66;97623.19;4964705;28;20055;-39
2021/08/29 10:18:23;;;;;;;7.05;5.53;;;14.80;99.90;;;14.73;79.73;97622.53;4970739;28;20070;-39
2021/08/29 10:21:13;;;;;;;5.22;4.63;;;14.80;99.90;;;14.66;79.94;97626.16;4965369;28;20061;-39
2021/08/29 10:23:46;;;;;;;5.65;5.15;;;14.80;99.90;;;14.69;80.04;97634.63;4964211;28;20271;-39
2021/08/29 10:26:17;;;;;;;6.40;5.55;;;14.90;99.90;;;14.84;79.95;97621.22;4965563;28;20062;-39
2021/08/29 10:29:11;;;;;;;6.32;5.32;;;15.10;99.90;;;14.94;79.75;97619.03;4964578;28;20061;-39
2021/08/29 10:32:28;;;;;;;6.85;5.35;;;15.20;99.90;;;15.05;79.81;97623.09;4961830;28;20061;-39
2021/08/29 10:35:19;;;;;;;6.45;4.68;;;15.20;99.90;;;15.12;79.68;97615.09;4963463;28;20138;-39
2021/08/29 10:37:50;;;;;;;5.55;4.95;;;15.30;99.90;;;15.14;79.42;97621.09;4962041;28;20053;-39
2021/08/29 10:40:58;;;;;;;5.95;5.35;;;15.30;99.90;;;15.10;79.39;97619.84;4963476;28;20051;-39
2021/08/29 10:43:28;;;;;;;6.50;5.82;;;15.20;99.90;;;15.31;79.30;97619.00;4964697;28;20047;-39
2021/08/29 10:46:29;;;;;;;5.60;4.95;;;15.50;99.90;;;15.16;79.35;97624.47;4948709;28;20061;-39
2021/08/29 10:49:15;;;;;;;7.57;5.40;;;15.30;99.90;;;15.15;79.34;97620.09;4973726;28;20053;-39
2021/08/29 10:51:51;;;;;;;11.27;6.75;;;15.20;99.90;;;15.25;79.09;97622.47;4951530;28;20265;-39
2021/08/29 10:54:19;;;;;;;6.70;6.00;;;15.30;99.90;;;15.22;78.83;97623.69;4966022;28;20055;-39
2021/08/29 10:56:48;;;;;;;7.55;6.10;;;15.30;99.90;;;15.24;78.77;97618.97;4966850;28;20057;-40